Arusha Airport

Airport
ICAO code: 
HTAR
IATA Code: 
ARK
Summary
ICAO Region: 
AFI
Territory: 
Location: 
Arusha, Arusha Region
Serving: 
Arusha
Elevation: 
4550 ft
Coordinates: 
Aerial View: 
3° 22' 0.012" S, 36° 37' 18.984" E
Metar
Observation
HTAR 280700Z 13006KT 9999 FEW024 23/16 Q1021 NOSIG
Station
Arusha
Date/Time
2022-01-28 07:00:00
Wind direction
130°
Wind speed
06 kts
Lowest cloud amount
few clouds
Temperature
23°C
Dew point
16°C
Humidity
64%
QNH
1021 hPa
Weather condition
n/a

Arusha Airport is an airport serving Arusha, the capital of the Arusha Region of Tanzania.

Climatology

Subtropical highland climate (Köppen climate classification Cwb)

Runways

Designator Length Width Surface Rops
9/27 1639 32 BIT No/No
Airport map: 
Aerial View: 

SKYbrary Partners:

Safety knowledge contributed by: